sensor_id;sensor_type;location;lat;lon;timestamp;pressure;altitude;pressure_sealevel;temperature;humidity
72086;BME280;64750;52.134;5.424;2023-07-22T00:00:41;101544.19;;;16.33;70.96
72086;BME280;64750;52.134;5.424;2023-07-22T00:03:07;101548.53;;;16.34;71.05
72086;BME280;64750;52.134;5.424;2023-07-22T00:05:34;101536.75;;;16.38;70.72
72086;BME280;64750;52.134;5.424;2023-07-22T00:08:01;101544.19;;;16.33;70.63
72086;BME280;64750;52.134;5.424;2023-07-22T00:10:27;101541.16;;;16.26;70.72
72086;BME280;64750;52.134;5.424;2023-07-22T00:12:53;101545.63;;;16.26;71.13
72086;BME280;64750;52.134;5.424;2023-07-22T00:15:20;101548.91;;;16.29;71.01
72086;BME280;64750;52.134;5.424;2023-07-22T00:17:48;101544.63;;;16.27;71.04
72086;BME280;64750;52.134;5.424;2023-07-22T00:20:15;101551.00;;;16.24;71.04
72086;BME280;64750;52.134;5.424;2023-07-22T00:22:42;101542.09;;;16.25;70.89
72086;BME280;64750;52.134;5.424;2023-07-22T00:25:10;101542.09;;;16.25;70.87
72086;BME280;64750;52.134;5.424;2023-07-22T00:27:38;101540.19;;;16.27;70.88
72086;BME280;64750;52.134;5.424;2023-07-22T00:30:06;101541.38;;;16.23;70.95
72086;BME280;64750;52.134;5.424;2023-07-22T00:32:33;101537.03;;;16.22;70.97
72086;BME280;64750;52.134;5.424;2023-07-22T00:35:00;101541.59;;;16.20;70.89
72086;BME280;64750;52.134;5.424;2023-07-22T00:37:29;101542.78;;;16.16;70.88
72086;BME280;64750;52.134;5.424;2023-07-22T00:39:56;101536.22;;;16.08;70.72
72086;BME280;64750;52.134;5.424;2023-07-22T00:42:22;101537.63;;;16.01;71.04
72086;BME280;64750;52.134;5.424;2023-07-22T00:44:49;101534.03;;;16.02;71.08
72086;BME280;64750;52.134;5.424;2023-07-22T00:47:16;101535.94;;;16.00;70.97
72086;BME280;64750;52.134;5.424;2023-07-22T00:49:46;101530.63;;;16.00;70.96
72086;BME280;64750;52.134;5.424;2023-07-22T00:52:13;101528.00;;;16.00;71.01
72086;BME280;64750;52.134;5.424;2023-07-22T00:54:40;101522.06;;;15.97;71.04
72086;BME280;64750;52.134;5.424;2023-07-22T00:57:06;101517.94;;;15.93;71.10
72086;BME280;64750;52.134;5.424;2023-07-22T00:59:33;101518.88;;;15.91;71.08
72086;BME280;64750;52.134;5.424;2023-07-22T01:01:59;101521.41;;;15.93;71.28
72086;BME280;64750;52.134;5.424;2023-07-22T01:04:26;101514.44;;;15.92;71.25
72086;BME280;64750;52.134;5.424;2023-07-22T01:06:53;101513.81;;;15.88;71.09
72086;BME280;64750;52.134;5.424;2023-07-22T01:09:20;101516.34;;;15.90;71.35
72086;BME280;64750;52.134;5.424;2023-07-22T01:11:47;101504.91;;;15.89;71.58
72086;BME280;64750;52.134;5.424;2023-07-22T01:14:14;101509.59;;;15.86;71.50
72086;BME280;64750;52.134;5.424;2023-07-22T01:16:42;101504.28;;;15.86;71.59
72086;BME280;64750;52.134;5.424;2023-07-22T01:19:09;101507.06;;;15.84;71.65
72086;BME280;64750;52.134;5.424;2023-07-22T01:21:37;101499.38;;;15.80;71.85
72086;BME280;64750;52.134;5.424;2023-07-22T01:24:04;101503.81;;;15.79;71.92
72086;BME280;64750;52.134;5.424;2023-07-22T01:26:31;101500.47;;;15.77;71.96
72086;BME280;64750;52.134;5.424;2023-07-22T01:29:07;101501.09;;;15.81;71.98
72086;BME280;64750;52.134;5.424;2023-07-22T01:31:37;101501.41;;;15.76;71.92
72086;BME280;64750;52.134;5.424;2023-07-22T01:34:04;101496.22;;;15.74;72.27
72086;BME280;64750;52.134;5.424;2023-07-22T01:36:30;101494.28;;;15.77;72.02
72086;BME280;64750;52.134;5.424;2023-07-22T01:38:57;101497.69;;;15.79;71.89
72086;BME280;64750;52.134;5.424;2023-07-22T01:41:24;101496.66;;;15.81;72.08
72086;BME280;64750;52.134;5.424;2023-07-22T01:43:51;101495.03;;;15.79;71.84
72086;BME280;64750;52.134;5.424;2023-07-22T01:46:17;101502.47;;;15.73;71.97
72086;BME280;64750;52.134;5.424;2023-07-22T01:48:44;101494.75;;;15.70;72.04
72086;BME280;64750;52.134;5.424;2023-07-22T01:51:10;101501.97;;;15.68;72.06
72086;BME280;64750;52.134;5.424;2023-07-22T01:53:37;101499.63;;;15.64;71.91
72086;BME280;64750;52.134;5.424;2023-07-22T01:56:04;101494.44;;;15.62;72.08
72086;BME280;64750;52.134;5.424;2023-07-22T01:58:32;101494.78;;;15.57;72.10
72086;BME280;64750;52.134;5.424;2023-07-22T02:00:58;101495.38;;;15.61;72.03
72086;BME280;64750;52.134;5.424;2023-07-22T02:03:25;101493.72;;;15.60;72.04
72086;BME280;64750;52.134;5.424;2023-07-22T02:05:53;101495.63;;;15.58;71.89
72086;BME280;64750;52.134;5.424;2023-07-22T02:08:19;101494.03;;;15.55;71.99
72086;BME280;64750;52.134;5.424;2023-07-22T02:10:46;101495.63;;;15.58;72.01
72086;BME280;64750;52.134;5.424;2023-07-22T02:13:12;101488.50;;;15.58;71.94
72086;BME280;64750;52.134;5.424;2023-07-22T02:15:40;101489.25;;;15.61;71.73
72086;BME280;64750;52.134;5.424;2023-07-22T02:18:08;101483.13;;;15.60;71.79
72086;BME280;64750;52.134;5.424;2023-07-22T02:20:34;101486.59;;;15.61;71.78
72086;BME280;64750;52.134;5.424;2023-07-22T02:23:01;101475.88;;;15.62;71.89
72086;BME280;64750;52.134;5.424;2023-07-22T02:25:27;101476.00;;;15.61;71.77
72086;BME280;64750;52.134;5.424;2023-07-22T02:27:54;101476.94;;;15.59;71.72
72086;BME280;64750;52.134;5.424;2023-07-22T02:30:21;101473.34;;;15.61;71.96
72086;BME280;64750;52.134;5.424;2023-07-22T02:32:47;101476.75;;;15.63;71.90
72086;BME280;64750;52.134;5.424;2023-07-22T02:35:14;101471.53;;;15.61;71.93
72086;BME280;64750;52.134;5.424;2023-07-22T02:37:40;101474.41;;;15.58;71.87
72086;BME280;64750;52.134;5.424;2023-07-22T02:40:07;101470.41;;;15.52;72.04
72086;BME280;64750;52.134;5.424;2023-07-22T02:42:38;101467.53;;;15.55;71.95
72086;BME280;64750;52.134;5.424;2023-07-22T02:45:05;101465.72;;;15.56;72.01
72086;BME280;64750;52.134;5.424;2023-07-22T02:47:34;101460.66;;;15.53;72.14
72086;BME280;64750;52.134;5.424;2023-07-22T02:50:01;101460.88;;;15.50;72.17
72086;BME280;64750;52.134;5.424;2023-07-22T02:52:28;101457.50;;;15.48;72.06
72086;BME280;64750;52.134;5.424;2023-07-22T02:55:07;101467.25;;;15.47;72.26
72086;BME280;64750;52.134;5.424;2023-07-22T02:57:34;101459.38;;;15.46;72.22
72086;BME280;64750;52.134;5.424;2023-07-22T03:00:01;101462.03;;;15.46;72.22
72086;BME280;64750;52.134;5.424;2023-07-22T03:02:34;101461.53;;;15.40;72.26
72086;BME280;64750;52.134;5.424;2023-07-22T03:05:03;101466.81;;;15.40;72.28
72086;BME280;64750;52.134;5.424;2023-07-22T03:07:31;101465.13;;;15.39;72.28
72086;BME280;64750;52.134;5.424;2023-07-22T03:09:57;101470.22;;;15.42;72.32
72086;BME280;64750;52.134;5.424;2023-07-22T03:12:25;101469.16;;;15.45;72.37
72086;BME280;64750;52.134;5.424;2023-07-22T03:14:52;101472.63;;;15.46;72.20
72086;BME280;64750;52.134;5.424;2023-07-22T03:17:19;101475.28;;;15.46;72.43
72086;BME280;64750;52.134;5.424;2023-07-22T03:19:46;101475.50;;;15.42;72.22
72086;BME280;64750;52.134;5.424;2023-07-22T03:22:15;101475.63;;;15.41;72.20
72086;BME280;64750;52.134;5.424;2023-07-22T03:24:48;101471.47;;;15.37;72.39
72086;BME280;64750;52.134;5.424;2023-07-22T03:27:14;101473.06;;;15.39;72.66
72086;BME280;64750;52.134;5.424;2023-07-22T03:29:41;101469.47;;;15.40;72.52
72086;BME280;64750;52.134;5.424;2023-07-22T03:32:08;101467.03;;;15.37;72.42
72086;BME280;64750;52.134;5.424;2023-07-22T03:34:35;101480.19;;;15.39;72.53
72086;BME280;64750;52.134;5.424;2023-07-22T03:37:02;101481.25;;;15.36;72.70
72086;BME280;64750;52.134;5.424;2023-07-22T03:39:28;101474.25;;;15.35;72.79
72086;BME280;64750;52.134;5.424;2023-07-22T03:41:55;101480.41;;;15.36;72.71
72086;BME280;64750;52.134;5.424;2023-07-22T03:44:21;101473.41;;;15.35;72.59
72086;BME280;64750;52.134;5.424;2023-07-22T03:46:48;101473.00;;;15.28;72.99
72086;BME280;64750;52.134;5.424;2023-07-22T03:49:14;101473.19;;;15.25;72.86
72086;BME280;64750;52.134;5.424;2023-07-22T03:51:41;101469.06;;;15.21;72.79
72086;BME280;64750;52.134;5.424;2023-07-22T03:54:08;101469.91;;;15.21;73.04
72086;BME280;64750;52.134;5.424;2023-07-22T03:56:34;101471.50;;;15.24;72.97
72086;BME280;64750;52.134;5.424;2023-07-22T03:59:01;101475.00;;;15.24;72.96
72086;BME280;64750;52.134;5.424;2023-07-22T04:01:27;101473.19;;;15.25;73.08
72086;BME280;64750;52.134;5.424;2023-07-22T04:03:54;101471.28;;;15.27;72.90
72086;BME280;64750;52.134;5.424;2023-07-22T04:06:20;101481.88;;;15.27;72.82
72086;BME280;64750;52.134;5.424;2023-07-22T04:08:47;101481.13;;;15.25;72.96
72086;BME280;64750;52.134;5.424;2023-07-22T04:11:13;101485.47;;;15.26;72.76
72086;BME280;64750;52.134;5.424;2023-07-22T04:13:40;101475.72;;;15.26;72.92
72086;BME280;64750;52.134;5.424;2023-07-22T04:16:07;101484.44;;;15.29;72.90
72086;BME280;64750;52.134;5.424;2023-07-22T04:18:33;101481.88;;;15.27;73.08
72086;BME280;64750;52.134;5.424;2023-07-22T04:21:00;101476.59;;;15.27;73.26
72086;BME280;64750;52.134;5.424;2023-07-22T04:23:27;101472.13;;;15.28;73.24
72086;BME280;64750;52.134;5.424;2023-07-22T04:25:53;101475.53;;;15.30;73.37
72086;BME280;64750;52.134;5.424;2023-07-22T04:28:20;101481.66;;;15.30;73.40
72086;BME280;64750;52.134;5.424;2023-07-22T04:30:55;101469.16;;;15.32;73.45
72086;BME280;64750;52.134;5.424;2023-07-22T04:33:22;101466.53;;;15.32;73.60
72086;BME280;64750;52.134;5.424;2023-07-22T04:35:52;101474.47;;;15.32;73.84
72086;BME280;64750;52.134;5.424;2023-07-22T04:38:19;101471.81;;;15.32;73.88
72086;BME280;64750;52.134;5.424;2023-07-22T04:40:45;101476.16;;;15.33;73.95
72086;BME280;64750;52.134;5.424;2023-07-22T04:43:12;101481.25;;;15.36;73.92
72086;BME280;64750;52.134;5.424;2023-07-22T04:45:38;101473.41;;;15.35;74.13
72086;BME280;64750;52.134;5.424;2023-07-22T04:48:06;101474.25;;;15.35;74.56
72086;BME280;64750;52.134;5.424;2023-07-22T04:50:33;101475.09;;;15.36;74.68
72086;BME280;64750;52.134;5.424;2023-07-22T04:52:59;101477.41;;;15.40;74.77
72086;BME280;64750;52.134;5.424;2023-07-22T04:55:26;101489.72;;;15.41;74.83
72086;BME280;64750;52.134;5.424;2023-07-22T04:57:56;101482.50;;;15.44;74.85
72086;BME280;64750;52.134;5.424;2023-07-22T05:00:22;101482.28;;;15.47;75.11
72086;BME280;64750;52.134;5.424;2023-07-22T05:02:48;101482.16;;;15.48;75.29
72086;BME280;64750;52.134;5.424;2023-07-22T05:05:15;101482.28;;;15.47;75.41
72086;BME280;64750;52.134;5.424;2023-07-22T05:07:42;101472.31;;;15.50;75.61
72086;BME280;64750;52.134;5.424;2023-07-22T05:10:09;101466.91;;;15.52;75.68
72086;BME280;64750;52.134;5.424;2023-07-22T05:12:38;101476.31;;;15.56;75.75
72086;BME280;64750;52.134;5.424;2023-07-22T05:15:06;101471.03;;;15.56;76.14
72086;BME280;64750;52.134;5.424;2023-07-22T05:17:33;101472.72;;;15.57;76.31
72086;BME280;64750;52.134;5.424;2023-07-22T05:19:59;101471.25;;;15.53;76.45
72086;BME280;64750;52.134;5.424;2023-07-22T05:22:26;101472.72;;;15.57;76.62
72086;BME280;64750;52.134;5.424;2023-07-22T05:24:52;101477.69;;;15.62;76.69
72086;BME280;64750;52.134;5.424;2023-07-22T05:27:19;101474.09;;;15.63;76.92
72086;BME280;64750;52.134;5.424;2023-07-22T05:29:45;101469.63;;;15.63;77.20
72086;BME280;64750;52.134;5.424;2023-07-22T05:32:12;101474.00;;;15.64;77.21
72086;BME280;64750;52.134;5.424;2023-07-22T05:34:57;101481.81;;;15.66;77.04
72086;BME280;64750;52.134;5.424;2023-07-22T05:37:24;101465.59;;;15.70;77.28
72086;BME280;64750;52.134;5.424;2023-07-22T05:39:51;101476.91;;;15.72;77.51
72086;BME280;64750;52.134;5.424;2023-07-22T05:42:18;101469.91;;;15.71;77.74
72086;BME280;64750;52.134;5.424;2023-07-22T05:44:44;101482.03;;;15.75;77.69
72086;BME280;64750;52.134;5.424;2023-07-22T05:47:11;101476.50;;;15.79;77.86
72086;BME280;64750;52.134;5.424;2023-07-22T05:49:37;101479.97;;;15.79;78.15
72086;BME280;64750;52.134;5.424;2023-07-22T05:52:04;101476.28;;;15.82;78.14
72086;BME280;64750;52.134;5.424;2023-07-22T05:54:30;101477.03;;;15.84;78.15
72086;BME280;64750;52.134;5.424;2023-07-22T05:56:57;101475.13;;;15.86;78.19
72086;BME280;64750;52.134;5.424;2023-07-22T05:59:23;101482.84;;;15.89;78.18
72086;BME280;64750;52.134;5.424;2023-07-22T06:01:50;101481.91;;;15.90;78.00
72086;BME280;64750;52.134;5.424;2023-07-22T06:04:17;101479.25;;;15.90;78.10
72086;BME280;64750;52.134;5.424;2023-07-22T06:06:43;101468.63;;;15.90;78.26
72086;BME280;64750;52.134;5.424;2023-07-22T06:09:10;101482.63;;;15.92;78.72
72086;BME280;64750;52.134;5.424;2023-07-22T06:11:37;101478.81;;;15.96;78.23
72086;BME280;64750;52.134;5.424;2023-07-22T06:14:03;101483.88;;;15.99;78.44
72086;BME280;64750;52.134;5.424;2023-07-22T06:16:30;101477.50;;;16.02;78.81
72086;BME280;64750;52.134;5.424;2023-07-22T06:18:56;101478.34;;;16.02;78.55
72086;BME280;64750;52.134;5.424;2023-07-22T06:21:23;101472.69;;;16.07;78.36
72086;BME280;64750;52.134;5.424;2023-07-22T06:23:50;101477.28;;;16.05;78.55
72086;BME280;64750;52.134;5.424;2023-07-22T06:26:16;101464.13;;;16.03;78.49
72086;BME280;64750;52.134;5.424;2023-07-22T06:28:42;101465.50;;;16.09;78.49
72086;BME280;64750;52.134;5.424;2023-07-22T06:31:09;101471.19;;;16.16;78.51
72086;BME280;64750;52.134;5.424;2023-07-22T06:33:36;101467.22;;;16.21;78.83
72086;BME280;64750;52.134;5.424;2023-07-22T06:36:02;101463.41;;;16.26;78.72
72086;BME280;64750;52.134;5.424;2023-07-22T06:38:29;101462.09;;;16.31;78.56
72086;BME280;64750;52.134;5.424;2023-07-22T06:40:55;101468.13;;;16.33;78.56
72086;BME280;64750;52.134;5.424;2023-07-22T06:43:22;101456.56;;;16.34;78.35
72086;BME280;64750;52.134;5.424;2023-07-22T06:45:48;101458.97;;;16.37;78.89
72086;BME280;64750;52.134;5.424;2023-07-22T06:48:15;101460.66;;;16.38;78.90
72086;BME280;64750;52.134;5.424;2023-07-22T06:50:49;101456.94;;;16.41;79.08
72086;BME280;64750;52.134;5.424;2023-07-22T06:53:16;101451.28;;;16.46;78.83
72086;BME280;64750;52.134;5.424;2023-07-22T06:55:50;101454.41;;;16.51;78.94
72086;BME280;64750;52.134;5.424;2023-07-22T06:58:20;101449.84;;;16.53;78.97
72086;BME280;64750;52.134;5.424;2023-07-22T07:00:47;101446.88;;;16.58;78.63
72086;BME280;64750;52.134;5.424;2023-07-22T07:03:14;101450.09;;;16.61;79.13
72086;BME280;64750;52.134;5.424;2023-07-22T07:05:40;101448.94;;;16.65;78.91
72086;BME280;64750;52.134;5.424;2023-07-22T07:08:08;101452.28;;;16.67;78.87
72086;BME280;64750;52.134;5.424;2023-07-22T07:10:37;101458.34;;;16.69;78.66
72086;BME280;64750;52.134;5.424;2023-07-22T07:13:04;101460.75;;;16.72;78.56
72086;BME280;64750;52.134;5.424;2023-07-22T07:15:31;101457.25;;;16.72;78.49
72086;BME280;64750;52.134;5.424;2023-07-22T07:17:58;101449.91;;;16.76;78.40
72086;BME280;64750;52.134;5.424;2023-07-22T07:20:24;101445.31;;;16.78;78.70
72086;BME280;64750;52.134;5.424;2023-07-22T07:22:51;101449.44;;;16.82;78.62
72086;BME280;64750;52.134;5.424;2023-07-22T07:25:17;101445.34;;;16.89;78.19
72086;BME280;64750;52.134;5.424;2023-07-22T07:27:44;101442.50;;;16.92;77.98
72086;BME280;64750;52.134;5.424;2023-07-22T07:30:10;101446.59;;;16.96;77.95
72086;BME280;64750;52.134;5.424;2023-07-22T07:32:37;101447.31;;;16.98;77.47
72086;BME280;64750;52.134;5.424;2023-07-22T07:35:04;101453.47;;;16.99;77.62
72086;BME280;64750;52.134;5.424;2023-07-22T07:37:31;101448.16;;;16.99;78.01
72086;BME280;64750;52.134;5.424;2023-07-22T07:39:58;101451.66;;;16.99;77.74
72086;BME280;64750;52.134;5.424;2023-07-22T07:42:26;101455.75;;;17.03;77.83
72086;BME280;64750;52.134;5.424;2023-07-22T07:44:54;101455.41;;;17.08;77.66
72086;BME280;64750;52.134;5.424;2023-07-22T07:47:20;101452.41;;;17.13;77.40
72086;BME280;64750;52.134;5.424;2023-07-22T07:49:47;101442.50;;;17.15;76.92
72086;BME280;64750;52.134;5.424;2023-07-22T07:52:14;101451.94;;;17.19;76.54
72086;BME280;64750;52.134;5.424;2023-07-22T07:54:40;101449.16;;;17.20;76.33
72086;BME280;64750;52.134;5.424;2023-07-22T07:57:07;101444.66;;;17.21;76.69
72086;BME280;64750;52.134;5.424;2023-07-22T07:59:33;101447.81;;;17.26;76.32
72086;BME280;64750;52.134;5.424;2023-07-22T08:02:02;101440.56;;;17.28;76.18
72086;BME280;64750;52.134;5.424;2023-07-22T08:04:30;101439.34;;;17.32;75.92
72086;BME280;64750;52.134;5.424;2023-07-22T08:06:57;101443.84;;;17.32;75.09
72086;BME280;64750;52.134;5.424;2023-07-22T08:09:23;101444.66;;;17.32;75.52
72086;BME280;64750;52.134;5.424;2023-07-22T08:11:50;101446.25;;;17.35;75.50
72086;BME280;64750;52.134;5.424;2023-07-22T08:14:16;101440.66;;;17.38;75.06
72086;BME280;64750;52.134;5.424;2023-07-22T08:16:44;101445.75;;;17.41;74.65
72086;BME280;64750;52.134;5.424;2023-07-22T08:19:11;101444.66;;;17.44;74.39
72086;BME280;64750;52.134;5.424;2023-07-22T08:21:37;101442.72;;;17.46;74.26
72086;BME280;64750;52.134;5.424;2023-07-22T08:24:04;101439.56;;;17.52;74.09
72086;BME280;64750;52.134;5.424;2023-07-22T08:26:31;101445.34;;;17.57;74.18
72086;BME280;64750;52.134;5.424;2023-07-22T08:28:58;101436.06;;;17.63;74.26
72086;BME280;64750;52.134;5.424;2023-07-22T08:31:24;101437.13;;;17.71;73.40
72086;BME280;64750;52.134;5.424;2023-07-22T08:33:51;101439.03;;;17.81;73.91
72086;BME280;64750;52.134;5.424;2023-07-22T08:36:17;101438.53;;;17.87;72.35
72086;BME280;64750;52.134;5.424;2023-07-22T08:38:43;101439.09;;;17.91;71.95
72086;BME280;64750;52.134;5.424;2023-07-22T08:41:14;101436.25;;;17.94;71.96
72086;BME280;64750;52.134;5.424;2023-07-22T08:43:45;101431.25;;;18.00;72.13
72086;BME280;64750;52.134;5.424;2023-07-22T08:46:15;101435.34;;;18.04;71.09
72086;BME280;64750;52.134;5.424;2023-07-22T08:48:42;101434.38;;;18.06;71.00
72086;BME280;64750;52.134;5.424;2023-07-22T08:51:16;101433.88;;;18.12;70.76
72086;BME280;64750;52.134;5.424;2023-07-22T08:53:44;101423.84;;;18.15;70.97
72086;BME280;64750;52.134;5.424;2023-07-22T08:56:18;101430.72;;;18.18;70.78
72086;BME280;64750;52.134;5.424;2023-07-22T08:58:46;101425.41;;;18.18;70.61
72086;BME280;64750;52.134;5.424;2023-07-22T09:01:12;101425.25;;;18.19;70.97
72086;BME280;64750;52.134;5.424;2023-07-22T09:03:39;101422.34;;;18.23;70.47
72086;BME280;64750;52.134;5.424;2023-07-22T09:06:07;101423.91;;;18.25;70.15
72086;BME280;64750;52.134;5.424;2023-07-22T09:08:33;101423.66;;;18.28;70.25
72086;BME280;64750;52.134;5.424;2023-07-22T09:11:01;101421.97;;;18.27;70.39
72086;BME280;64750;52.134;5.424;2023-07-22T09:13:28;101427.00;;;18.30;70.33
72086;BME280;64750;52.134;5.424;2023-07-22T09:15:57;101423.59;;;18.40;70.54
72086;BME280;64750;52.134;5.424;2023-07-22T09:18:25;101424.75;;;18.47;70.92
72086;BME280;64750;52.134;5.424;2023-07-22T09:20:52;101423.53;;;18.51;69.01
72086;BME280;64750;52.134;5.424;2023-07-22T09:23:32;101417.88;;;18.44;69.04
72086;BME280;64750;52.134;5.424;2023-07-22T09:26:11;101432.16;;;18.43;68.92
72086;BME280;64750;52.134;5.424;2023-07-22T09:28:57;101428.38;;;18.46;68.66
72086;BME280;64750;52.134;5.424;2023-07-22T09:31:25;101425.47;;;18.49;68.52
72086;BME280;64750;52.134;5.424;2023-07-22T09:33:52;101426.31;;;18.49;67.85
72086;BME280;64750;52.134;5.424;2023-07-22T09:36:22;101428.00;;;18.50;68.30
72086;BME280;64750;52.134;5.424;2023-07-22T09:39:02;101419.78;;;18.53;68.20
72086;BME280;64750;52.134;5.424;2023-07-22T09:41:30;101418.53;;;18.58;67.63
72086;BME280;64750;52.134;5.424;2023-07-22T09:43:57;101409.00;;;18.55;66.65
72086;BME280;64750;52.134;5.424;2023-07-22T09:46:33;101424.00;;;18.56;66.99
72086;BME280;64750;52.134;5.424;2023-07-22T09:49:06;101422.16;;;18.57;66.45
72086;BME280;64750;52.134;5.424;2023-07-22T09:51:40;101423.13;;;18.56;66.34
72086;BME280;64750;52.134;5.424;2023-07-22T09:54:26;101419.63;;;18.55;66.16
72086;BME280;64750;52.134;5.424;2023-07-22T09:56:55;101423.28;;;18.54;66.60
72086;BME280;64750;52.134;5.424;2023-07-22T09:59:22;101413.34;;;18.56;66.45
72086;BME280;64750;52.134;5.424;2023-07-22T10:01:50;101421.34;;;18.56;65.86
72086;BME280;64750;52.134;5.424;2023-07-22T10:04:18;101421.34;;;18.56;65.78
72086;BME280;64750;52.134;5.424;2023-07-22T10:06:47;101417.56;;;18.59;66.41
72086;BME280;64750;52.134;5.424;2023-07-22T10:09:15;101428.09;;;18.60;66.05
72086;BME280;64750;52.134;5.424;2023-07-22T10:11:42;101415.72;;;18.59;66.22
72086;BME280;64750;52.134;5.424;2023-07-22T10:14:08;101423.72;;;18.59;66.00
72086;BME280;64750;52.134;5.424;2023-07-22T10:16:36;101406.78;;;18.60;66.47
72086;BME280;64750;52.134;5.424;2023-07-22T10:19:04;101413.53;;;18.64;65.85
72086;BME280;64750;52.134;5.424;2023-07-22T10:21:31;101408.94;;;18.66;65.02
72086;BME280;64750;52.134;5.424;2023-07-22T10:24:01;101411.31;;;18.69;64.91
72086;BME280;64750;52.134;5.424;2023-07-22T10:26:29;101409.22;;;18.73;64.73
72086;BME280;64750;52.134;5.424;2023-07-22T10:29:13;101405.47;;;18.76;64.52
72086;BME280;64750;52.134;5.424;2023-07-22T10:31:41;101402.53;;;18.79;64.46
72086;BME280;64750;52.134;5.424;2023-07-22T10:34:07;101411.94;;;18.83;64.34
72086;BME280;64750;52.134;5.424;2023-07-22T10:36:35;101406.34;;;18.86;63.67
72086;BME280;64750;52.134;5.424;2023-07-22T10:39:02;101408.16;;;18.85;63.87
72086;BME280;64750;52.134;5.424;2023-07-22T10:41:31;101403.94;;;18.83;63.49
72086;BME280;64750;52.134;5.424;2023-07-22T10:43:58;101405.91;;;18.81;63.76
72086;BME280;64750;52.134;5.424;2023-07-22T10:46:36;101408.56;;;18.81;63.27
72086;BME280;64750;52.134;5.424;2023-07-22T10:49:14;101410.50;;;18.79;62.43
72086;BME280;64750;52.134;5.424;2023-07-22T10:51:50;101406.88;;;18.80;63.35
72086;BME280;64750;52.134;5.424;2023-07-22T10:54:34;101399.63;;;18.82;63.30
72086;BME280;64750;52.134;5.424;2023-07-22T10:57:23;101405.91;;;18.81;63.21
72086;BME280;64750;52.134;5.424;2023-07-22T10:59:51;101403.25;;;18.81;63.55
72086;BME280;64750;52.134;5.424;2023-07-22T11:02:28;101407.84;;;18.79;63.69
72086;BME280;64750;52.134;5.424;2023-07-22T11:04:58;101406.16;;;18.78;63.04
72086;BME280;64750;52.134;5.424;2023-07-22T11:07:34;101418.19;;;18.72;63.11
72086;BME280;64750;52.134;5.424;2023-07-22T11:10:15;101424.75;;;18.68;62.48
72086;BME280;64750;52.134;5.424;2023-07-22T11:12:44;101424.19;;;18.64;62.15
72086;BME280;64750;52.134;5.424;2023-07-22T11:15:15;101411.84;;;18.63;62.69
72086;BME280;64750;52.134;5.424;2023-07-22T11:17:41;101407.38;;;18.64;62.89
72086;BME280;64750;52.134;5.424;2023-07-22T11:20:08;101417.16;;;18.63;62.46
72086;BME280;64750;52.134;5.424;2023-07-22T11:22:39;101406.50;;;18.63;62.44
72086;BME280;64750;52.134;5.424;2023-07-22T11:25:06;101414.94;;;18.68;62.80
72086;BME280;64750;52.134;5.424;2023-07-22T11:27:33;101409.38;;;18.72;63.30
72086;BME280;64750;52.134;5.424;2023-07-22T11:30:02;101398.16;;;18.78;63.74
72086;BME280;64750;52.134;5.424;2023-07-22T11:32:30;101404.06;;;18.81;63.92
72086;BME280;64750;52.134;5.424;2023-07-22T11:34:56;101400.44;;;18.82;64.12
72086;BME280;64750;52.134;5.424;2023-07-22T11:37:23;101394.28;;;18.82;63.17
72086;BME280;64750;52.134;5.424;2023-07-22T11:39:49;101392.59;;;18.81;63.00
72086;BME280;64750;52.134;5.424;2023-07-22T11:42:16;101393.69;;;18.78;63.09
72086;BME280;64750;52.134;5.424;2023-07-22T11:44:43;101391.63;;;18.82;63.67
72086;BME280;64750;52.134;5.424;2023-07-22T11:47:09;101388.69;;;18.85;63.78
72086;BME280;64750;52.134;5.424;2023-07-22T11:49:38;101389.00;;;18.92;64.02
72086;BME280;64750;52.134;5.424;2023-07-22T11:52:25;101375.75;;;19.01;63.75
72086;BME280;64750;52.134;5.424;2023-07-22T11:54:51;101374.63;;;19.04;63.46
72086;BME280;64750;52.134;5.424;2023-07-22T11:57:23;101381.78;;;19.04;63.03
72086;BME280;64750;52.134;5.424;2023-07-22T11:59:52;101382.03;;;19.00;62.86
72086;BME280;64750;52.134;5.424;2023-07-22T12:02:25;101380.63;;;18.96;62.98
72086;BME280;64750;52.134;5.424;2023-07-22T12:05:00;101379.34;;;18.91;63.07
72086;BME280;64750;52.134;5.424;2023-07-22T12:07:35;101387.72;;;18.86;63.71
72086;BME280;64750;52.134;5.424;2023-07-22T12:10:04;101397.63;;;18.84;64.06
72086;BME280;64750;52.134;5.424;2023-07-22T12:12:44;101404.50;;;18.77;63.46
72086;BME280;64750;52.134;5.424;2023-07-22T12:15:14;101410.34;;;18.71;63.14
72086;BME280;64750;52.134;5.424;2023-07-22T12:20:16;101423.28;;;18.54;66.48
72086;BME280;64750;52.134;5.424;2023-07-22T12:22:42;101421.50;;;18.43;67.57
72086;BME280;64750;52.134;5.424;2023-07-22T12:25:09;101421.91;;;18.39;68.95
72086;BME280;64750;52.134;5.424;2023-07-22T12:27:37;101420.06;;;18.39;68.67
72086;BME280;64750;52.134;5.424;2023-07-22T12:30:04;101404.38;;;18.36;69.34
72086;BME280;64750;52.134;5.424;2023-07-22T12:32:32;101406.06;;;18.37;69.81
72086;BME280;64750;52.134;5.424;2023-07-22T12:34:59;101404.13;;;18.39;69.04
72086;BME280;64750;52.134;5.424;2023-07-22T12:37:26;101408.91;;;18.45;68.89
72086;BME280;64750;52.134;5.424;2023-07-22T12:39:52;101409.66;;;18.47;67.54
72086;BME280;64750;52.134;5.424;2023-07-22T12:42:19;101408.78;;;18.47;68.42
72086;BME280;64750;52.134;5.424;2023-07-22T12:44:45;101405.28;;;18.46;68.10
72086;BME280;64750;52.134;5.424;2023-07-22T12:47:12;101399.38;;;18.43;67.63
72086;BME280;64750;52.134;5.424;2023-07-22T12:49:39;101403.72;;;18.44;67.84
72086;BME280;64750;52.134;5.424;2023-07-22T12:52:06;101403.59;;;18.45;67.35
72086;BME280;64750;52.134;5.424;2023-07-22T12:54:35;101406.41;;;18.44;67.97
72086;BME280;64750;52.134;5.424;2023-07-22T12:57:02;101407.88;;;18.36;68.92